sensor_id;sensor_type;location;lat;lon;timestamp;P1;durP1;ratioP1;P2;durP2;ratioP2
43664;SDS011;29263;48.172;11.484;2022-09-06T00:00:27;4.97;;;4.15;;
43664;SDS011;29263;48.172;11.484;2022-09-06T00:02:53;5.10;;;3.78;;
43664;SDS011;29263;48.172;11.484;2022-09-06T00:05:19;5.07;;;3.75;;
43664;SDS011;29263;48.172;11.484;2022-09-06T00:07:44;4.68;;;3.55;;
43664;SDS011;29263;48.172;11.484;2022-09-06T00:10:10;4.55;;;3.75;;
43664;SDS011;29263;48.172;11.484;2022-09-06T00:12:36;5.10;;;4.30;;
43664;SDS011;29263;48.172;11.484;2022-09-06T00:15:02;3.92;;;3.50;;
43664;SDS011;29263;48.172;11.484;2022-09-06T00:17:30;3.90;;;3.50;;
43664;SDS011;29263;48.172;11.484;2022-09-06T00:19:56;6.38;;;3.70;;
43664;SDS011;29263;48.172;11.484;2022-09-06T00:22:21;7.90;;;4.20;;
43664;SDS011;29263;48.172;11.484;2022-09-06T00:24:47;4.78;;;3.90;;
43664;SDS011;29263;48.172;11.484;2022-09-06T00:27:12;5.30;;;3.72;;
43664;SDS011;29263;48.172;11.484;2022-09-06T00:29:38;5.22;;;3.65;;
43664;SDS011;29263;48.172;11.484;2022-09-06T00:32:04;5.43;;;3.63;;
43664;SDS011;29263;48.172;11.484;2022-09-06T00:34:29;5.30;;;3.72;;
43664;SDS011;29263;48.172;11.484;2022-09-06T00:36:55;5.78;;;3.80;;
43664;SDS011;29263;48.172;11.484;2022-09-06T00:39:21;4.25;;;3.72;;
43664;SDS011;29263;48.172;11.484;2022-09-06T00:41:47;4.45;;;3.58;;
43664;SDS011;29263;48.172;11.484;2022-09-06T00:44:12;4.53;;;3.75;;
43664;SDS011;29263;48.172;11.484;2022-09-06T00:46:38;3.85;;;3.30;;
43664;SDS011;29263;48.172;11.484;2022-09-06T00:49:09;8.02;;;3.90;;
43664;SDS011;29263;48.172;11.484;2022-09-06T00:51:39;5.18;;;3.80;;
43664;SDS011;29263;48.172;11.484;2022-09-06T00:54:06;6.90;;;3.97;;
43664;SDS011;29263;48.172;11.484;2022-09-06T00:56:34;4.85;;;4.35;;
43664;SDS011;29263;48.172;11.484;2022-09-06T00:59:04;5.90;;;4.53;;
43664;SDS011;29263;48.172;11.484;2022-09-06T01:01:30;6.80;;;3.97;;
43664;SDS011;29263;48.172;11.484;2022-09-06T01:03:56;5.55;;;3.88;;
43664;SDS011;29263;48.172;11.484;2022-09-06T01:06:22;5.47;;;4.00;;
43664;SDS011;29263;48.172;11.484;2022-09-06T01:17:53;4.22;;;3.72;;
43664;SDS011;29263;48.172;11.484;2022-09-06T01:20:31;5.72;;;4.00;;
43664;SDS011;29263;48.172;11.484;2022-09-06T01:23:28;5.57;;;3.70;;
43664;SDS011;29263;48.172;11.484;2022-09-06T01:26:17;4.65;;;4.10;;
43664;SDS011;29263;48.172;11.484;2022-09-06T01:29:07;4.85;;;3.45;;
43664;SDS011;29263;48.172;11.484;2022-09-06T01:31:57;5.30;;;3.80;;
43664;SDS011;29263;48.172;11.484;2022-09-06T01:34:42;8.73;;;4.28;;
43664;SDS011;29263;48.172;11.484;2022-09-06T01:37:13;6.72;;;3.95;;
43664;SDS011;29263;48.172;11.484;2022-09-06T01:43:06;3.83;;;3.53;;
43664;SDS011;29263;48.172;11.484;2022-09-06T01:45:38;5.32;;;3.67;;
43664;SDS011;29263;48.172;11.484;2022-09-06T01:48:15;5.55;;;4.22;;
43664;SDS011;29263;48.172;11.484;2022-09-06T01:53:58;6.75;;;4.40;;
43664;SDS011;29263;48.172;11.484;2022-09-06T02:02:31;4.47;;;3.75;;
43664;SDS011;29263;48.172;11.484;2022-09-06T02:05:11;5.50;;;4.63;;
43664;SDS011;29263;48.172;11.484;2022-09-06T02:07:44;5.30;;;3.70;;
43664;SDS011;29263;48.172;11.484;2022-09-06T02:12:44;4.68;;;4.07;;
43664;SDS011;29263;48.172;11.484;2022-09-06T02:17:51;4.75;;;4.10;;
43664;SDS011;29263;48.172;11.484;2022-09-06T02:20:30;10.13;;;5.25;;
43664;SDS011;29263;48.172;11.484;2022-09-06T02:23:00;5.00;;;4.32;;
43664;SDS011;29263;48.172;11.484;2022-09-06T02:25:33;6.75;;;4.00;;
43664;SDS011;29263;48.172;11.484;2022-09-06T02:28:11;4.88;;;4.15;;
43664;SDS011;29263;48.172;11.484;2022-09-06T02:30:38;4.35;;;3.72;;
43664;SDS011;29263;48.172;11.484;2022-09-06T02:33:08;6.25;;;4.05;;
43664;SDS011;29263;48.172;11.484;2022-09-06T02:35:56;4.85;;;4.35;;
43664;SDS011;29263;48.172;11.484;2022-09-06T02:38:30;4.88;;;4.03;;
43664;SDS011;29263;48.172;11.484;2022-09-06T02:40:59;5.13;;;4.38;;
43664;SDS011;29263;48.172;11.484;2022-09-06T02:43:25;4.20;;;3.67;;
43664;SDS011;29263;48.172;11.484;2022-09-06T02:45:51;4.82;;;3.53;;
43664;SDS011;29263;48.172;11.484;2022-09-06T02:48:17;5.18;;;3.97;;
43664;SDS011;29263;48.172;11.484;2022-09-06T02:50:42;4.35;;;3.95;;
43664;SDS011;29263;48.172;11.484;2022-09-06T02:53:09;5.30;;;3.95;;
43664;SDS011;29263;48.172;11.484;2022-09-06T02:55:37;5.85;;;4.07;;
43664;SDS011;29263;48.172;11.484;2022-09-06T02:58:03;4.82;;;3.92;;
43664;SDS011;29263;48.172;11.484;2022-09-06T03:00:31;5.88;;;4.38;;
43664;SDS011;29263;48.172;11.484;2022-09-06T03:02:57;6.45;;;4.00;;
43664;SDS011;29263;48.172;11.484;2022-09-06T03:05:23;4.57;;;4.07;;
43664;SDS011;29263;48.172;11.484;2022-09-06T03:07:51;4.68;;;4.05;;
43664;SDS011;29263;48.172;11.484;2022-09-06T03:10:17;6.50;;;4.68;;
43664;SDS011;29263;48.172;11.484;2022-09-06T03:12:43;4.22;;;3.60;;
43664;SDS011;29263;48.172;11.484;2022-09-06T03:15:10;5.93;;;4.35;;
43664;SDS011;29263;48.172;11.484;2022-09-06T03:17:38;8.23;;;4.30;;
43664;SDS011;29263;48.172;11.484;2022-09-06T03:20:04;5.88;;;4.15;;
43664;SDS011;29263;48.172;11.484;2022-09-06T03:22:30;6.20;;;4.32;;
43664;SDS011;29263;48.172;11.484;2022-09-06T03:24:56;7.53;;;4.30;;
43664;SDS011;29263;48.172;11.484;2022-09-06T03:27:22;5.65;;;4.07;;
43664;SDS011;29263;48.172;11.484;2022-09-06T03:29:47;4.90;;;3.75;;
43664;SDS011;29263;48.172;11.484;2022-09-06T03:32:13;4.40;;;4.00;;
43664;SDS011;29263;48.172;11.484;2022-09-06T03:34:39;4.57;;;3.80;;
43664;SDS011;29263;48.172;11.484;2022-09-06T03:37:04;6.20;;;4.38;;
43664;SDS011;29263;48.172;11.484;2022-09-06T03:39:30;5.35;;;4.20;;
43664;SDS011;29263;48.172;11.484;2022-09-06T03:41:56;6.50;;;4.22;;
43664;SDS011;29263;48.172;11.484;2022-09-06T03:44:21;3.92;;;3.53;;
43664;SDS011;29263;48.172;11.484;2022-09-06T03:46:47;6.15;;;3.72;;
43664;SDS011;29263;48.172;11.484;2022-09-06T03:49:13;5.25;;;3.55;;
43664;SDS011;29263;48.172;11.484;2022-09-06T03:51:38;4.20;;;3.03;;
43664;SDS011;29263;48.172;11.484;2022-09-06T03:54:04;5.95;;;4.65;;
43664;SDS011;29263;48.172;11.484;2022-09-06T03:56:30;5.00;;;4.28;;
43664;SDS011;29263;48.172;11.484;2022-09-06T03:58:55;8.30;;;3.95;;
43664;SDS011;29263;48.172;11.484;2022-09-06T04:01:21;4.10;;;3.53;;
43664;SDS011;29263;48.172;11.484;2022-09-06T04:03:46;4.15;;;3.75;;
43664;SDS011;29263;48.172;11.484;2022-09-06T04:06:12;9.25;;;3.65;;
43664;SDS011;29263;48.172;11.484;2022-09-06T04:08:38;5.00;;;3.60;;
43664;SDS011;29263;48.172;11.484;2022-09-06T04:11:03;4.38;;;3.63;;
43664;SDS011;29263;48.172;11.484;2022-09-06T04:13:30;5.05;;;3.65;;
43664;SDS011;29263;48.172;11.484;2022-09-06T04:15:56;5.50;;;3.53;;
43664;SDS011;29263;48.172;11.484;2022-09-06T04:18:22;4.18;;;3.78;;
43664;SDS011;29263;48.172;11.484;2022-09-06T04:20:49;4.10;;;3.58;;
43664;SDS011;29263;48.172;11.484;2022-09-06T04:23:17;5.43;;;3.97;;
43664;SDS011;29263;48.172;11.484;2022-09-06T04:25:46;4.53;;;3.60;;
43664;SDS011;29263;48.172;11.484;2022-09-06T04:28:17;6.03;;;3.42;;
43664;SDS011;29263;48.172;11.484;2022-09-06T04:30:44;3.88;;;3.28;;
43664;SDS011;29263;48.172;11.484;2022-09-06T04:33:15;4.57;;;3.58;;
43664;SDS011;29263;48.172;11.484;2022-09-06T04:38:45;4.55;;;3.80;;
43664;SDS011;29263;48.172;11.484;2022-09-06T04:41:12;6.57;;;3.83;;
43664;SDS011;29263;48.172;11.484;2022-09-06T04:43:39;5.22;;;3.72;;
43664;SDS011;29263;48.172;11.484;2022-09-06T04:46:23;4.13;;;3.70;;
43664;SDS011;29263;48.172;11.484;2022-09-06T04:48:51;3.97;;;3.35;;
43664;SDS011;29263;48.172;11.484;2022-09-06T04:51:18;4.05;;;3.50;;
43664;SDS011;29263;48.172;11.484;2022-09-06T04:53:44;4.00;;;3.60;;
43664;SDS011;29263;48.172;11.484;2022-09-06T04:56:14;4.55;;;3.60;;
43664;SDS011;29263;48.172;11.484;2022-09-06T04:58:44;3.55;;;3.25;;
43664;SDS011;29263;48.172;11.484;2022-09-06T05:01:11;5.50;;;3.60;;
43664;SDS011;29263;48.172;11.484;2022-09-06T05:03:37;6.55;;;3.85;;
43664;SDS011;29263;48.172;11.484;2022-09-06T05:06:03;4.32;;;3.90;;
43664;SDS011;29263;48.172;11.484;2022-09-06T05:11:17;4.78;;;3.85;;
43664;SDS011;29263;48.172;11.484;2022-09-06T05:13:44;4.88;;;4.07;;
43664;SDS011;29263;48.172;11.484;2022-09-06T05:16:10;4.03;;;3.60;;
43664;SDS011;29263;48.172;11.484;2022-09-06T05:18:36;5.55;;;3.72;;
43664;SDS011;29263;48.172;11.484;2022-09-06T05:21:02;4.50;;;3.65;;
43664;SDS011;29263;48.172;11.484;2022-09-06T05:23:28;5.50;;;4.03;;
43664;SDS011;29263;48.172;11.484;2022-09-06T05:25:53;3.40;;;3.10;;
43664;SDS011;29263;48.172;11.484;2022-09-06T05:28:19;3.40;;;3.10;;
43664;SDS011;29263;48.172;11.484;2022-09-06T05:30:45;7.32;;;4.20;;
43664;SDS011;29263;48.172;11.484;2022-09-06T05:33:12;8.48;;;3.90;;
43664;SDS011;29263;48.172;11.484;2022-09-06T05:35:43;5.40;;;3.70;;
43664;SDS011;29263;48.172;11.484;2022-09-06T05:38:08;6.40;;;3.85;;
43664;SDS011;29263;48.172;11.484;2022-09-06T05:40:34;7.03;;;3.65;;
43664;SDS011;29263;48.172;11.484;2022-09-06T05:43:00;3.78;;;3.30;;
43664;SDS011;29263;48.172;11.484;2022-09-06T05:45:25;4.70;;;3.70;;
43664;SDS011;29263;48.172;11.484;2022-09-06T05:47:51;6.53;;;3.67;;
43664;SDS011;29263;48.172;11.484;2022-09-06T05:50:16;4.35;;;3.25;;
43664;SDS011;29263;48.172;11.484;2022-09-06T05:52:42;3.83;;;3.35;;
43664;SDS011;29263;48.172;11.484;2022-09-06T05:55:08;7.43;;;3.80;;
43664;SDS011;29263;48.172;11.484;2022-09-06T05:57:34;4.93;;;3.30;;
43664;SDS011;29263;48.172;11.484;2022-09-06T05:59:59;4.85;;;3.67;;
43664;SDS011;29263;48.172;11.484;2022-09-06T06:02:25;5.05;;;3.53;;
43664;SDS011;29263;48.172;11.484;2022-09-06T06:04:50;6.68;;;3.60;;
43664;SDS011;29263;48.172;11.484;2022-09-06T06:07:16;7.60;;;3.97;;
43664;SDS011;29263;48.172;11.484;2022-09-06T06:09:42;5.63;;;3.72;;
43664;SDS011;29263;48.172;11.484;2022-09-06T06:12:08;5.45;;;3.40;;
43664;SDS011;29263;48.172;11.484;2022-09-06T06:14:34;5.15;;;3.42;;
43664;SDS011;29263;48.172;11.484;2022-09-06T06:20:27;3.58;;;3.20;;
43664;SDS011;29263;48.172;11.484;2022-09-06T06:26:14;3.88;;;3.10;;
43664;SDS011;29263;48.172;11.484;2022-09-06T06:32:01;4.50;;;2.40;;
43664;SDS011;29263;48.172;11.484;2022-09-06T06:37:48;3.70;;;2.90;;
43664;SDS011;29263;48.172;11.484;2022-09-06T06:40:14;4.90;;;3.10;;
43664;SDS011;29263;48.172;11.484;2022-09-06T06:42:39;4.47;;;3.10;;
43664;SDS011;29263;48.172;11.484;2022-09-06T06:45:05;5.28;;;3.00;;
43664;SDS011;29263;48.172;11.484;2022-09-06T06:47:31;3.20;;;2.80;;
43664;SDS011;29263;48.172;11.484;2022-09-06T06:49:57;4.15;;;2.70;;
43664;SDS011;29263;48.172;11.484;2022-09-06T06:52:22;2.72;;;2.53;;
43664;SDS011;29263;48.172;11.484;2022-09-06T06:54:48;5.47;;;3.10;;
43664;SDS011;29263;48.172;11.484;2022-09-06T06:57:14;5.38;;;3.13;;
43664;SDS011;29263;48.172;11.484;2022-09-06T06:59:39;2.83;;;2.38;;
43664;SDS011;29263;48.172;11.484;2022-09-06T07:02:05;3.10;;;2.45;;
43664;SDS011;29263;48.172;11.484;2022-09-06T07:07:15;4.97;;;3.28;;
43664;SDS011;29263;48.172;11.484;2022-09-06T07:09:41;8.20;;;2.67;;
43664;SDS011;29263;48.172;11.484;2022-09-06T07:12:06;3.97;;;2.65;;
43664;SDS011;29263;48.172;11.484;2022-09-06T07:17:40;3.45;;;2.30;;
43664;SDS011;29263;48.172;11.484;2022-09-06T07:20:06;4.70;;;1.95;;
43664;SDS011;29263;48.172;11.484;2022-09-06T07:22:33;2.95;;;2.00;;
43664;SDS011;29263;48.172;11.484;2022-09-06T07:24:58;2.55;;;1.80;;
43664;SDS011;29263;48.172;11.484;2022-09-06T07:30:11;4.22;;;2.08;;
43664;SDS011;29263;48.172;11.484;2022-09-06T07:32:38;3.78;;;1.92;;
43664;SDS011;29263;48.172;11.484;2022-09-06T07:35:03;3.90;;;2.20;;
43664;SDS011;29263;48.172;11.484;2022-09-06T07:37:29;2.65;;;1.80;;
43664;SDS011;29263;48.172;11.484;2022-09-06T07:39:55;4.20;;;1.90;;
43664;SDS011;29263;48.172;11.484;2022-09-06T07:48:00;4.55;;;1.90;;
43664;SDS011;29263;48.172;11.484;2022-09-06T07:50:26;2.80;;;2.05;;
43664;SDS011;29263;48.172;11.484;2022-09-06T07:52:53;5.32;;;1.75;;
43664;SDS011;29263;48.172;11.484;2022-09-06T07:58:03;3.10;;;2.30;;
43664;SDS011;29263;48.172;11.484;2022-09-06T08:00:28;9.70;;;3.15;;
43664;SDS011;29263;48.172;11.484;2022-09-06T08:02:54;4.47;;;2.00;;
43664;SDS011;29263;48.172;11.484;2022-09-06T08:08:03;2.78;;;1.85;;
43664;SDS011;29263;48.172;11.484;2022-09-06T08:10:29;4.22;;;2.38;;
43664;SDS011;29263;48.172;11.484;2022-09-06T08:12:55;3.60;;;1.45;;
43664;SDS011;29263;48.172;11.484;2022-09-06T08:15:21;5.13;;;1.73;;
43664;SDS011;29263;48.172;11.484;2022-09-06T08:17:47;2.70;;;1.50;;
43664;SDS011;29263;48.172;11.484;2022-09-06T08:22:58;4.63;;;1.45;;
43664;SDS011;29263;48.172;11.484;2022-09-06T08:25:24;3.60;;;1.15;;
43664;SDS011;29263;48.172;11.484;2022-09-06T08:27:49;4.70;;;1.55;;
43664;SDS011;29263;48.172;11.484;2022-09-06T08:36:21;3.08;;;1.05;;
43664;SDS011;29263;48.172;11.484;2022-09-06T08:38:47;5.13;;;1.40;;
43664;SDS011;29263;48.172;11.484;2022-09-06T08:43:38;3.67;;;1.25;;
43664;SDS011;29263;48.172;11.484;2022-09-06T08:46:13;14.10;;;1.52;;
43664;SDS011;29263;48.172;11.484;2022-09-06T08:48:42;2.13;;;0.93;;
43664;SDS011;29263;48.172;11.484;2022-09-06T08:53:34;1.98;;;1.30;;
43664;SDS011;29263;48.172;11.484;2022-09-06T08:56:26;3.38;;;1.02;;
43664;SDS011;29263;48.172;11.484;2022-09-06T08:59:03;2.13;;;1.00;;
43664;SDS011;29263;48.172;11.484;2022-09-06T09:01:49;3.42;;;0.98;;
43664;SDS011;29263;48.172;11.484;2022-09-06T09:04:27;4.15;;;1.10;;
43664;SDS011;29263;48.172;11.484;2022-09-06T09:06:57;2.63;;;0.90;;
43664;SDS011;29263;48.172;11.484;2022-09-06T09:09:31;1.85;;;0.77;;
43664;SDS011;29263;48.172;11.484;2022-09-06T09:11:58;2.17;;;0.80;;
43664;SDS011;29263;48.172;11.484;2022-09-06T09:14:29;4.75;;;1.08;;
43664;SDS011;29263;48.172;11.484;2022-09-06T09:17:02;2.60;;;0.80;;
43664;SDS011;29263;48.172;11.484;2022-09-06T09:19:39;1.10;;;0.77;;
43664;SDS011;29263;48.172;11.484;2022-09-06T09:22:06;1.00;;;0.70;;
43664;SDS011;29263;48.172;11.484;2022-09-06T09:24:31;1.98;;;0.80;;
43664;SDS011;29263;48.172;11.484;2022-09-06T09:27:05;2.55;;;0.90;;
43664;SDS011;29263;48.172;11.484;2022-09-06T09:37:41;4.90;;;1.00;;
43664;SDS011;29263;48.172;11.484;2022-09-06T09:40:17;3.42;;;0.73;;
43664;SDS011;29263;48.172;11.484;2022-09-06T09:43:07;2.60;;;1.00;;
43664;SDS011;29263;48.172;11.484;2022-09-06T09:45:45;2.83;;;1.17;;
43664;SDS011;29263;48.172;11.484;2022-09-06T09:48:31;1.20;;;0.70;;
43664;SDS011;29263;48.172;11.484;2022-09-06T09:50:56;1.65;;;0.70;;
43664;SDS011;29263;48.172;11.484;2022-09-06T09:53:55;5.35;;;0.77;;
43664;SDS011;29263;48.172;11.484;2022-09-06T09:56:28;3.58;;;1.27;;
43664;SDS011;29263;48.172;11.484;2022-09-06T09:58:59;2.88;;;0.98;;
43664;SDS011;29263;48.172;11.484;2022-09-06T10:01:28;1.67;;;0.68;;
43664;SDS011;29263;48.172;11.484;2022-09-06T10:04:02;1.33;;;0.80;;
43664;SDS011;29263;48.172;11.484;2022-09-06T10:06:33;1.93;;;0.83;;
43664;SDS011;29263;48.172;11.484;2022-09-06T10:09:11;1.92;;;0.70;;
43664;SDS011;29263;48.172;11.484;2022-09-06T10:11:39;1.75;;;0.90;;
43664;SDS011;29263;48.172;11.484;2022-09-06T10:14:41;1.73;;;0.80;;
43664;SDS011;29263;48.172;11.484;2022-09-06T10:17:17;2.15;;;0.68;;
43664;SDS011;29263;48.172;11.484;2022-09-06T10:19:53;1.48;;;0.65;;
43664;SDS011;29263;48.172;11.484;2022-09-06T10:27:43;3.55;;;0.70;;
43664;SDS011;29263;48.172;11.484;2022-09-06T10:30:24;4.78;;;0.88;;
43664;SDS011;29263;48.172;11.484;2022-09-06T10:35:37;2.42;;;0.70;;
43664;SDS011;29263;48.172;11.484;2022-09-06T10:40:44;3.42;;;0.73;;
43664;SDS011;29263;48.172;11.484;2022-09-06T10:43:19;2.45;;;0.90;;
43664;SDS011;29263;48.172;11.484;2022-09-06T10:50:54;3.22;;;1.08;;
43664;SDS011;29263;48.172;11.484;2022-09-06T10:53:29;2.08;;;0.60;;
43664;SDS011;29263;48.172;11.484;2022-09-06T10:56:14;1.42;;;0.50;;
43664;SDS011;29263;48.172;11.484;2022-09-06T11:01:32;1.02;;;0.60;;
43664;SDS011;29263;48.172;11.484;2022-09-06T11:04:01;3.13;;;0.82;;
43664;SDS011;29263;48.172;11.484;2022-09-06T11:06:33;2.72;;;0.77;;
43664;SDS011;29263;48.172;11.484;2022-09-06T11:09:22;4.60;;;0.70;;
43664;SDS011;29263;48.172;11.484;2022-09-06T11:12:09;2.55;;;0.82;;
43664;SDS011;29263;48.172;11.484;2022-09-06T11:14:40;4.78;;;1.20;;
43664;SDS011;29263;48.172;11.484;2022-09-06T11:17:07;5.03;;;0.80;;
43664;SDS011;29263;48.172;11.484;2022-09-06T11:19:41;2.08;;;0.80;;
43664;SDS011;29263;48.172;11.484;2022-09-06T11:22:23;3.05;;;0.88;;
43664;SDS011;29263;48.172;11.484;2022-09-06T11:25:21;3.78;;;0.98;;
43664;SDS011;29263;48.172;11.484;2022-09-06T11:28:02;2.58;;;1.10;;
43664;SDS011;29263;48.172;11.484;2022-09-06T11:30:32;3.80;;;1.15;;
43664;SDS011;29263;48.172;11.484;2022-09-06T11:33:19;1.95;;;1.00;;
43664;SDS011;29263;48.172;11.484;2022-09-06T11:35:48;3.42;;;0.90;;
43664;SDS011;29263;48.172;11.484;2022-09-06T11:40:41;3.15;;;0.77;;
43664;SDS011;29263;48.172;11.484;2022-09-06T11:45:41;3.65;;;0.80;;
43664;SDS011;29263;48.172;11.484;2022-09-06T11:53:19;6.40;;;1.33;;
43664;SDS011;29263;48.172;11.484;2022-09-06T11:55:51;4.70;;;1.38;;
43664;SDS011;29263;48.172;11.484;2022-09-06T12:06:18;6.93;;;1.42;;
43664;SDS011;29263;48.172;11.484;2022-09-06T12:08:51;4.35;;;0.80;;
43664;SDS011;29263;48.172;11.484;2022-09-06T12:24:52;5.72;;;1.50;;
43664;SDS011;29263;48.172;11.484;2022-09-06T12:27:31;8.93;;;1.65;;
43664;SDS011;29263;48.172;11.484;2022-09-06T12:32:54;5.20;;;1.73;;
43664;SDS011;29263;48.172;11.484;2022-09-06T12:35:24;8.18;;;1.40;;
43664;SDS011;29263;48.172;11.484;2022-09-06T12:37:55;8.05;;;1.50;;
43664;SDS011;29263;48.172;11.484;2022-09-06T12:40:23;5.28;;;1.45;;
43664;SDS011;29263;48.172;11.484;2022-09-06T12:42:54;4.15;;;1.10;;
43664;SDS011;29263;48.172;11.484;2022-09-06T12:45:21;5.72;;;1.65;;
43664;SDS011;29263;48.172;11.484;2022-09-06T12:47:47;8.05;;;1.30;;
43664;SDS011;29263;48.172;11.484;2022-09-06T12:50:20;8.30;;;1.45;;
43664;SDS011;29263;48.172;11.484;2022-09-06T12:52:53;13.32;;;2.22;;
43664;SDS011;29263;48.172;11.484;2022-09-06T12:57:55;6.40;;;1.40;;
43664;SDS011;29263;48.172;11.484;2022-09-06T13:00:23;9.45;;;1.70;;
43664;SDS011;29263;48.172;11.484;2022-09-06T13:02:53;6.10;;;1.52;;
43664;SDS011;29263;48.172;11.484;2022-09-06T13:05:29;8.35;;;1.40;;
43664;SDS011;29263;48.172;11.484;2022-09-06T13:07:57;4.38;;;1.20;;
43664;SDS011;29263;48.172;11.484;2022-09-06T13:10:27;4.15;;;1.67;;
43664;SDS011;29263;48.172;11.484;2022-09-06T13:12:54;4.15;;;1.38;;
43664;SDS011;29263;48.172;11.484;2022-09-06T13:15:24;4.57;;;1.27;;
43664;SDS011;29263;48.172;11.484;2022-09-06T13:17:51;9.05;;;2.22;;
43664;SDS011;29263;48.172;11.484;2022-09-06T13:20:28;8.32;;;2.08;;
43664;SDS011;29263;48.172;11.484;2022-09-06T13:23:08;4.35;;;1.40;;
43664;SDS011;29263;48.172;11.484;2022-09-06T13:25:56;5.78;;;1.33;;
43664;SDS011;29263;48.172;11.484;2022-09-06T13:28:25;7.20;;;1.52;;
43664;SDS011;29263;48.172;11.484;2022-09-06T13:33:38;7.47;;;1.52;;
43664;SDS011;29263;48.172;11.484;2022-09-06T13:38:40;4.75;;;1.55;;
43664;SDS011;29263;48.172;11.484;2022-09-06T13:46:27;7.00;;;1.45;;
43664;SDS011;29263;48.172;11.484;2022-09-06T13:48:56;11.30;;;1.90;;
43664;SDS011;29263;48.172;11.484;2022-09-06T13:51:22;6.30;;;1.38;;
43664;SDS011;29263;48.172;11.484;2022-09-06T13:54:02;7.20;;;1.30;;
43664;SDS011;29263;48.172;11.484;2022-09-06T13:56:31;5.68;;;1.98;;
43664;SDS011;29263;48.172;11.484;2022-09-06T13:58:57;5.47;;;1.65;;
43664;SDS011;29263;48.172;11.484;2022-09-06T14:01:23;5.35;;;1.45;;
43664;SDS011;29263;48.172;11.484;2022-09-06T14:03:48;10.85;;;3.08;;
43664;SDS011;29263;48.172;11.484;2022-09-06T14:06:14;8.93;;;1.70;;
43664;SDS011;29263;48.172;11.484;2022-09-06T14:08:40;3.90;;;1.25;;
43664;SDS011;29263;48.172;11.484;2022-09-06T14:11:06;3.95;;;1.30;;
43664;SDS011;29263;48.172;11.484;2022-09-06T14:13:32;5.15;;;1.48;;
43664;SDS011;29263;48.172;11.484;2022-09-06T14:15:58;10.75;;;1.55;;
43664;SDS011;29263;48.172;11.484;2022-09-06T14:18:24;7.68;;;1.48;;
43664;SDS011;29263;48.172;11.484;2022-09-06T14:20:53;4.85;;;1.20;;
43664;SDS011;29263;48.172;11.484;2022-09-06T14:23:21;9.23;;;1.88;;
43664;SDS011;29263;48.172;11.484;2022-09-06T14:25:47;5.47;;;1.90;;
43664;SDS011;29263;48.172;11.484;2022-09-06T14:28:13;7.47;;;1.10;;
43664;SDS011;29263;48.172;11.484;2022-09-06T14:30:39;6.50;;;1.33;;
43664;SDS011;29263;48.172;11.484;2022-09-06T14:33:04;4.93;;;1.50;;
43664;SDS011;29263;48.172;11.484;2022-09-06T14:35:30;5.85;;;1.40;;
43664;SDS011;29263;48.172;11.484;2022-09-06T14:37:56;7.43;;;1.45;;
43664;SDS011;29263;48.172;11.484;2022-09-06T14:40:23;4.93;;;1.30;;
43664;SDS011;29263;48.172;11.484;2022-09-06T14:42:49;8.73;;;1.90;;
43664;SDS011;29263;48.172;11.484;2022-09-06T14:45:15;4.72;;;1.25;;
43664;SDS011;29263;48.172;11.484;2022-09-06T14:47:42;5.97;;;1.90;;
43664;SDS011;29263;48.172;11.484;2022-09-06T14:50:07;10.23;;;1.90;;
43664;SDS011;29263;48.172;11.484;2022-09-06T14:52:34;9.38;;;1.63;;
43664;SDS011;29263;48.172;11.484;2022-09-06T14:54:59;9.63;;;1.92;;
43664;SDS011;29263;48.172;11.484;2022-09-06T14:57:26;9.20;;;1.48;;
43664;SDS011;29263;48.172;11.484;2022-09-06T14:59:52;6.43;;;1.50;;
43664;SDS011;29263;48.172;11.484;2022-09-06T15:02:18;6.25;;;1.33;;
43664;SDS011;29263;48.172;11.484;2022-09-06T15:04:43;8.18;;;1.42;;
43664;SDS011;29263;48.172;11.484;2022-09-06T15:07:09;7.32;;;2.03;;
43664;SDS011;29263;48.172;11.484;2022-09-06T15:09:36;4.63;;;1.50;;
43664;SDS011;29263;48.172;11.484;2022-09-06T15:12:01;8.40;;;1.80;;
43664;SDS011;29263;48.172;11.484;2022-09-06T15:14:28;5.45;;;1.40;;
43664;SDS011;29263;48.172;11.484;2022-09-06T15:16:54;6.45;;;1.40;;
43664;SDS011;29263;48.172;11.484;2022-09-06T15:19:25;5.15;;;1.48;;
43664;SDS011;29263;48.172;11.484;2022-09-06T15:21:52;6.32;;;1.83;;
43664;SDS011;29263;48.172;11.484;2022-09-06T15:24:39;5.45;;;1.38;;
43664;SDS011;29263;48.172;11.484;2022-09-06T15:27:04;6.40;;;1.40;;
43664;SDS011;29263;48.172;11.484;2022-09-06T15:29:30;5.65;;;1.40;;
43664;SDS011;29263;48.172;11.484;2022-09-06T15:31:56;4.60;;;1.38;;
43664;SDS011;29263;48.172;11.484;2022-09-06T15:34:22;3.25;;;1.20;;
43664;SDS011;29263;48.172;11.484;2022-09-06T15:36:50;9.98;;;1.40;;
43664;SDS011;29263;48.172;11.484;2022-09-06T15:39:17;5.53;;;1.52;;
43664;SDS011;29263;48.172;11.484;2022-09-06T15:41:43;6.97;;;1.67;;
43664;SDS011;29263;48.172;11.484;2022-09-06T15:44:10;3.75;;;1.42;;
43664;SDS011;29263;48.172;11.484;2022-09-06T15:46:50;6.07;;;1.13;;
43664;SDS011;29263;48.172;11.484;2022-09-06T15:49:27;5.13;;;1.67;;
43664;SDS011;29263;48.172;11.484;2022-09-06T15:51:57;3.42;;;1.27;;
43664;SDS011;29263;48.172;11.484;2022-09-06T15:54:24;7.78;;;1.80;;
43664;SDS011;29263;48.172;11.484;2022-09-06T15:57:09;7.07;;;2.03;;
43664;SDS011;29263;48.172;11.484;2022-09-06T15:59:35;2.90;;;1.60;;
43664;SDS011;29263;48.172;11.484;2022-09-06T16:02:02;6.45;;;1.20;;
43664;SDS011;29263;48.172;11.484;2022-09-06T16:04:28;6.35;;;1.70;;
43664;SDS011;29263;48.172;11.484;2022-09-06T16:06:54;4.55;;;1.50;;
43664;SDS011;29263;48.172;11.484;2022-09-06T16:09:21;6.95;;;1.33;;
43664;SDS011;29263;48.172;11.484;2022-09-06T16:11:47;3.60;;;1.35;;
43664;SDS011;29263;48.172;11.484;2022-09-06T16:14:13;6.10;;;1.30;;
43664;SDS011;29263;48.172;11.484;2022-09-06T16:16:40;6.35;;;1.15;;
43664;SDS011;29263;48.172;11.484;2022-09-06T16:19:07;4.25;;;1.20;;
43664;SDS011;29263;48.172;11.484;2022-09-06T16:21:35;7.85;;;2.65;;
43664;SDS011;29263;48.172;11.484;2022-09-06T16:24:03;4.23;;;1.53;;
43664;SDS011;29263;48.172;11.484;2022-09-06T16:26:33;4.28;;;1.25;;
43664;SDS011;29263;48.172;11.484;2022-09-06T16:29:01;9.15;;;1.27;;
43664;SDS011;29263;48.172;11.484;2022-09-06T16:31:28;7.65;;;2.78;;
43664;SDS011;29263;48.172;11.484;2022-09-06T16:33:55;5.50;;;1.25;;
43664;SDS011;29263;48.172;11.484;2022-09-06T16:36:22;3.58;;;1.10;;
43664;SDS011;29263;48.172;11.484;2022-09-06T16:38:48;4.40;;;1.77;;
43664;SDS011;29263;48.172;11.484;2022-09-06T16:41:24;7.75;;;1.60;;
43664;SDS011;29263;48.172;11.484;2022-09-06T16:43:57;6.85;;;1.42;;
43664;SDS011;29263;48.172;11.484;2022-09-06T16:46:24;6.68;;;1.40;;
43664;SDS011;29263;48.172;11.484;2022-09-06T16:48:53;3.20;;;1.10;;
43664;SDS011;29263;48.172;11.484;2022-09-06T16:51:20;4.53;;;1.35;;
43664;SDS011;29263;48.172;11.484;2022-09-06T16:53:48;5.82;;;1.48;;
43664;SDS011;29263;48.172;11.484;2022-09-06T16:56:16;6.55;;;1.25;;
43664;SDS011;29263;48.172;11.484;2022-09-06T16:58:50;2.88;;;1.83;;
43664;SDS011;29263;48.172;11.484;2022-09-06T17:01:18;2.53;;;1.25;;
43664;SDS011;29263;48.172;11.484;2022-09-06T17:03:44;3.25;;;1.35;;
43664;SDS011;29263;48.172;11.484;2022-09-06T17:06:11;3.60;;;1.30;;
43664;SDS011;29263;48.172;11.484;2022-09-06T17:08:38;3.58;;;1.30;;
43664;SDS011;29263;48.172;11.484;2022-09-06T17:11:08;6.07;;;1.50;;
43664;SDS011;29263;48.172;11.484;2022-09-06T17:13:38;3.63;;;1.40;;
43664;SDS011;29263;48.172;11.484;2022-09-06T17:16:05;3.88;;;1.50;;
43664;SDS011;29263;48.172;11.484;2022-09-06T17:18:50;5.35;;;1.80;;